createdAt,value
2023-07-20T00:01:59.494Z,65.64
2023-07-20T00:04:01.687Z,65.17
2023-07-20T00:06:05.274Z,65.07
2023-07-20T00:08:06.844Z,65.21
2023-07-20T00:10:08.947Z,65.04
2023-07-20T00:12:10.574Z,65.33
2023-07-20T00:14:12.452Z,64.61
2023-07-20T00:16:14.187Z,64.24
2023-07-20T00:18:16.486Z,65.53
2023-07-20T00:20:18.877Z,66.30
2023-07-20T00:22:20.449Z,65.47
2023-07-20T00:24:22.074Z,65.83
2023-07-20T00:26:24.056Z,66.33
2023-07-20T00:28:26.036Z,65.77
2023-07-20T00:30:27.854Z,67.76
2023-07-20T00:32:29.579Z,66.27
2023-07-20T00:34:32.767Z,66.16
2023-07-20T00:36:34.308Z,65.84
2023-07-20T00:38:37.946Z,66.96
2023-07-20T00:40:41.150Z,67.22
2023-07-20T00:42:42.734Z,67.88
2023-07-20T00:44:44.408Z,67.19
2023-07-20T00:46:47.626Z,68.69
2023-07-20T00:48:49.453Z,68.85
2023-07-20T00:50:51.582Z,68.33
2023-07-20T00:52:53.857Z,68.77
2023-07-20T00:54:57.437Z,67.57
2023-07-20T00:56:59.920Z,67.42
2023-07-20T00:59:01.840Z,68.89
2023-07-20T01:01:03.564Z,68.03
2023-07-20T01:03:05.365Z,69.35
2023-07-20T01:05:08.549Z,68.73
2023-07-20T01:07:21.378Z,69.66
2023-07-20T01:09:32.966Z,69.39
2023-07-20T01:11:34.519Z,70.53
2023-07-20T01:13:38.108Z,69.43
2023-07-20T01:15:40.100Z,70.07
2023-07-20T01:17:41.798Z,69.86
2023-07-20T01:19:43.578Z,70.11
2023-07-20T01:22:10.245Z,69.53
2023-07-20T01:24:58.372Z,69.63
2023-07-20T01:27:35.090Z,68.69
2023-07-20T01:29:42.784Z,68.75
2023-07-20T01:31:45.642Z,68.96
2023-07-20T01:33:49.148Z,68.64
2023-07-20T01:35:57.712Z,69.00
2023-07-20T01:38:00.359Z,69.42
2023-07-20T01:40:03.209Z,70.24
2023-07-20T01:42:05.275Z,71.30
2023-07-20T01:44:06.922Z,72.26
2023-07-20T01:46:08.606Z,72.09
2023-07-20T01:48:10.897Z,72.28
2023-07-20T01:50:12.457Z,72.57
2023-07-20T01:52:14.070Z,72.94
2023-07-20T01:54:15.712Z,73.11
2023-07-20T01:56:17.792Z,73.73
2023-07-20T01:58:19.519Z,73.38
2023-07-20T02:00:24.927Z,73.74
2023-07-20T02:02:29.427Z,73.85
2023-07-20T02:04:43.246Z,75.01
2023-07-20T02:06:45.187Z,74.85
2023-07-20T02:08:47.201Z,74.88
2023-07-20T02:10:49.377Z,74.24
2023-07-20T02:12:51.905Z,74.87
2023-07-20T02:14:54.033Z,73.77
2023-07-20T02:16:58.910Z,73.58
2023-07-20T02:19:03.011Z,73.47
2023-07-20T02:21:04.724Z,73.41
2023-07-20T02:23:07.022Z,73.06
2023-07-20T02:25:09.184Z,73.04
2023-07-20T02:27:10.754Z,73.06
2023-07-20T02:29:12.802Z,74.05
2023-07-20T02:31:14.482Z,74.42
2023-07-20T02:33:16.186Z,74.35
2023-07-20T02:35:17.779Z,74.55
2023-07-20T02:37:19.730Z,74.55
2023-07-20T02:39:21.331Z,74.87
2023-07-20T02:41:23.259Z,74.21
2023-07-20T02:43:25.066Z,74.44
2023-07-20T02:45:26.662Z,73.98
2023-07-20T02:47:28.253Z,73.83
2023-07-20T02:49:29.934Z,75.26
2023-07-20T02:51:31.686Z,75.29
2023-07-20T02:53:34.270Z,75.66
2023-07-20T02:55:36.098Z,75.90
2023-07-20T02:57:37.648Z,75.21
2023-07-20T02:59:39.295Z,75.87
2023-07-20T03:01:43.750Z,76.33
2023-07-20T03:03:48.635Z,75.88
2023-07-20T03:05:55.339Z,76.02
2023-07-20T03:07:57.254Z,76.11
2023-07-20T03:09:58.991Z,75.87
2023-07-20T03:12:00.625Z,75.86
2023-07-20T03:14:02.245Z,76.42
2023-07-20T03:16:04.025Z,78.90
2023-07-20T03:18:05.821Z,78.27
2023-07-20T03:20:10.538Z,77.53
2023-07-20T03:22:12.068Z,80.96
2023-07-20T03:24:13.789Z,80.37
2023-07-20T03:26:15.774Z,79.29
2023-07-20T03:28:18.057Z,79.26
2023-07-20T03:30:19.922Z,78.30
2023-07-20T03:32:21.499Z,77.71
2023-07-20T03:34:23.073Z,76.49
2023-07-20T03:36:24.877Z,76.23
2023-07-20T03:38:27.943Z,76.62
2023-07-20T03:40:30.211Z,76.50
2023-07-20T03:42:31.920Z,76.87
2023-07-20T03:44:33.566Z,76.70
2023-07-20T03:46:35.270Z,76.68
2023-07-20T03:48:37.103Z,76.12
2023-07-20T03:50:39.405Z,76.34
2023-07-20T03:52:41.328Z,76.87
2023-07-20T03:54:43.769Z,76.98
2023-07-20T03:56:45.501Z,78.02
2023-07-20T03:58:47.287Z,77.73
2023-07-20T04:00:52.033Z,77.83
2023-07-20T04:02:53.906Z,77.63
2023-07-20T04:04:55.845Z,78.72
2023-07-20T04:06:57.909Z,78.93
2023-07-20T04:08:59.480Z,78.77
2023-07-20T04:11:04.216Z,78.74
2023-07-20T04:13:06.849Z,78.09
2023-07-20T04:15:09.310Z,78.59
2023-07-20T04:17:14.199Z,78.44
2023-07-20T04:19:15.846Z,77.60
2023-07-20T04:21:18.224Z,77.77
2023-07-20T04:23:19.874Z,77.74
2023-07-20T04:25:21.541Z,78.24
2023-07-20T04:27:23.724Z,77.61
2023-07-20T04:29:25.436Z,77.67
2023-07-20T04:31:27.018Z,76.11
2023-07-20T04:33:29.973Z,75.56
2023-07-20T04:35:52.906Z,73.72
2023-07-20T04:38:01.785Z,74.04
2023-07-20T04:40:04.544Z,73.67
2023-07-20T04:42:06.161Z,73.82
2023-07-20T04:44:07.887Z,74.44
2023-07-20T04:46:10.803Z,74.11
2023-07-20T04:48:15.194Z,74.55
2023-07-20T04:50:23.050Z,74.57
2023-07-20T04:52:37.499Z,74.12
2023-07-20T04:54:44.667Z,73.28
2023-07-20T04:56:50.412Z,72.69
2023-07-20T04:58:54.157Z,73.13
2023-07-20T05:00:55.926Z,71.90
2023-07-20T05:02:58.108Z,71.27
2023-07-20T05:04:59.843Z,71.45
2023-07-20T05:07:01.461Z,71.20
2023-07-20T05:09:03.246Z,70.76
2023-07-20T05:11:05.797Z,70.53
2023-07-20T05:13:08.155Z,69.43
2023-07-20T05:15:10.370Z,70.46
2023-07-20T05:17:14.622Z,68.61
2023-07-20T05:19:16.294Z,69.90
2023-07-20T05:21:17.909Z,68.58
2023-07-20T05:23:23.006Z,68.72
2023-07-20T05:25:25.011Z,69.08
2023-07-20T05:27:26.590Z,69.47
2023-07-20T05:29:28.336Z,70.71
2023-07-20T05:31:31.628Z,70.61
2023-07-20T05:33:33.351Z,68.10
2023-07-20T05:35:34.928Z,68.23
2023-07-20T05:37:36.510Z,69.61
2023-07-20T05:39:38.635Z,69.18
2023-07-20T05:41:40.191Z,67.55
2023-07-20T05:43:43.239Z,69.56
2023-07-20T05:45:48.924Z,68.09
2023-07-20T05:47:50.883Z,68.43
2023-07-20T05:49:52.595Z,68.92
2023-07-20T05:51:56.957Z,69.89
2023-07-20T05:53:58.947Z,69.33
2023-07-20T05:56:00.489Z,70.21
2023-07-20T05:58:02.683Z,69.54
2023-07-20T06:00:04.745Z,69.73
2023-07-20T06:02:13.805Z,69.39
2023-07-20T06:04:15.864Z,68.99
2023-07-20T06:06:17.557Z,69.12
2023-07-20T06:08:19.174Z,67.88
2023-07-20T06:10:20.789Z,68.60
2023-07-20T06:12:22.361Z,68.22
2023-07-20T06:14:23.909Z,69.26
2023-07-20T06:16:26.043Z,66.48
2023-07-20T06:18:27.968Z,67.17
2023-07-20T06:20:29.634Z,66.56
2023-07-20T06:22:31.305Z,64.62
2023-07-20T06:24:32.958Z,65.94
2023-07-20T06:26:40.209Z,65.67
2023-07-20T06:28:41.880Z,65.97
2023-07-20T06:30:43.441Z,64.92
2023-07-20T06:32:45.724Z,64.48
2023-07-20T06:34:47.634Z,65.35
2023-07-20T06:36:49.690Z,65.80
2023-07-20T06:40:55.933Z,65.38
2023-07-20T06:45:02.919Z,64.32
2023-07-20T06:47:06.321Z,64.91
2023-07-20T06:51:13.538Z,63.97
2023-07-20T06:53:15.118Z,64.96
2023-07-20T06:57:23.881Z,64.33
2023-07-20T06:59:25.868Z,63.93
2023-07-20T07:01:27.767Z,65.06
2023-07-20T07:03:29.983Z,64.26
2023-07-20T07:07:36.465Z,61.03
2023-07-20T07:09:38.344Z,61.81
2023-07-20T07:11:40.094Z,62.86
2023-07-20T07:13:41.917Z,62.42
2023-07-20T07:17:46.327Z,62.53
2023-07-20T07:19:49.723Z,61.02
2023-07-20T07:21:52.795Z,61.35
2023-07-20T07:23:55.431Z,60.86
2023-07-20T07:25:57.405Z,60.12
2023-07-20T07:27:58.932Z,60.20
2023-07-20T07:30:00.508Z,60.49
2023-07-20T07:32:02.693Z,60.57
2023-07-20T07:34:04.266Z,62.39
2023-07-20T07:36:06.005Z,61.76
2023-07-20T07:38:19.285Z,62.39
2023-07-20T07:40:26.350Z,62.18
2023-07-20T07:42:30.576Z,61.81
2023-07-20T07:44:32.551Z,61.69
2023-07-20T07:46:34.208Z,63.15
2023-07-20T07:48:35.806Z,61.34
2023-07-20T07:50:37.484Z,62.89
2023-07-20T07:52:39.019Z,63.71
2023-07-20T07:54:40.842Z,63.64
2023-07-20T07:56:42.453Z,63.79
2023-07-20T07:58:44.155Z,62.79
2023-07-20T08:00:45.766Z,63.02
2023-07-20T08:02:49.518Z,62.16
2023-07-20T08:04:53.570Z,61.82
2023-07-20T08:06:55.349Z,60.81
2023-07-20T08:08:56.960Z,58.35
2023-07-20T08:10:59.523Z,58.56
2023-07-20T08:13:01.259Z,59.10
2023-07-20T08:15:03.392Z,59.41
2023-07-20T08:17:05.909Z,59.90
2023-07-20T08:19:07.743Z,60.12
2023-07-20T08:21:09.417Z,61.17
2023-07-20T08:23:11.017Z,61.88
2023-07-20T08:25:13.209Z,62.70
2023-07-20T08:27:14.791Z,61.67
2023-07-20T08:29:16.436Z,61.53
2023-07-20T08:31:18.799Z,60.20
2023-07-20T08:33:21.434Z,60.50
2023-07-20T08:35:23.371Z,59.82
2023-07-20T08:37:26.158Z,58.27
2023-07-20T08:39:27.835Z,58.81
2023-07-20T08:41:29.622Z,58.03
2023-07-20T08:43:32.087Z,58.43
2023-07-20T08:45:35.958Z,58.90
2023-07-20T08:47:38.514Z,58.60
2023-07-20T08:49:42.111Z,58.57
2023-07-20T08:51:44.206Z,58.14
2023-07-20T08:53:48.385Z,57.99
2023-07-20T08:55:53.576Z,57.84
2023-07-20T08:58:00.397Z,57.92
2023-07-20T09:00:14.020Z,58.21
2023-07-20T09:02:19.749Z,57.51
2023-07-20T09:04:21.853Z,56.88
2023-07-20T09:06:24.201Z,56.93
2023-07-20T09:08:26.249Z,56.60
2023-07-20T09:10:27.953Z,57.17
2023-07-20T09:12:29.550Z,57.82
2023-07-20T09:14:32.487Z,58.21
2023-07-20T09:16:51.514Z,58.67
2023-07-20T09:18:54.422Z,58.31
2023-07-20T09:21:03.978Z,59.24
2023-07-20T09:25:16.786Z,58.47
2023-07-20T09:27:18.314Z,59.59
2023-07-20T09:29:21.127Z,60.10
2023-07-20T09:31:23.795Z,59.54
2023-07-20T09:33:28.811Z,57.90
2023-07-20T09:35:41.663Z,57.32
2023-07-20T09:40:18.214Z,57.26
2023-07-20T09:51:01.091Z,49.33
2023-07-20T09:55:09.631Z,51.11
2023-07-20T09:57:14.805Z,52.50
2023-07-20T09:59:17.127Z,52.28
2023-07-20T10:01:24.948Z,51.99
2023-07-20T10:03:33.121Z,53.04
2023-07-20T10:05:40.749Z,53.13
2023-07-20T10:07:48.426Z,54.30
2023-07-20T10:09:53.744Z,53.65
2023-07-20T10:12:15.238Z,53.81
2023-07-20T10:14:21.663Z,53.73
2023-07-20T10:16:30.483Z,53.84
2023-07-20T10:18:39.192Z,53.89
2023-07-20T10:21:43.693Z,52.94
2023-07-20T10:23:05.221Z,52.77
2023-07-20T10:25:08.035Z,51.83
2023-07-20T10:27:09.937Z,52.76
2023-07-20T10:29:13.490Z,51.58
2023-07-20T10:31:16.757Z,52.73
2023-07-20T10:33:20.289Z,52.63
2023-07-20T10:35:21.911Z,52.65
2023-07-20T10:37:53.950Z,51.69
2023-07-20T10:39:57.678Z,51.41
2023-07-20T10:42:09.067Z,53.15
2023-07-20T10:44:11.445Z,49.89
2023-07-20T10:46:13.876Z,48.76
2023-07-20T10:48:18.208Z,48.23
2023-07-20T10:50:24.138Z,47.19
2023-07-20T10:52:25.982Z,47.03
2023-07-20T10:54:27.528Z,45.09
2023-07-20T10:56:32.107Z,46.12
2023-07-20T10:58:34.939Z,45.40
2023-07-20T11:00:37.199Z,45.89
2023-07-20T11:02:51.338Z,44.53
2023-07-20T11:04:54.354Z,44.59
2023-07-20T11:06:56.687Z,43.34
2023-07-20T11:09:16.243Z,44.89
2023-07-20T11:11:25.088Z,42.05
2023-07-20T11:13:27.847Z,43.26
2023-07-20T11:15:48.149Z,42.21
2023-07-20T11:17:50.660Z,42.48
2023-07-20T11:22:08.634Z,41.04
2023-07-20T11:24:11.352Z,39.65
2023-07-20T11:26:13.962Z,39.23
2023-07-20T11:28:15.525Z,38.57
2023-07-20T11:30:17.647Z,38.28
2023-07-20T11:32:23.362Z,41.84
2023-07-20T11:34:25.838Z,41.92
2023-07-20T11:38:31.879Z,40.13
2023-07-20T11:40:33.755Z,39.95
2023-07-20T11:44:40.170Z,40.13
2023-07-20T11:46:45.783Z,40.34
2023-07-20T11:48:47.442Z,41.57
2023-07-20T11:50:49.274Z,40.66
2023-07-20T11:52:51.226Z,40.81
2023-07-20T11:54:53.360Z,42.39
2023-07-20T11:56:56.845Z,42.07
2023-07-20T11:59:01.204Z,42.28
2023-07-20T12:01:03.525Z,43.29
2023-07-20T12:03:11.080Z,43.57
2023-07-20T12:05:12.820Z,43.52
2023-07-20T12:07:14.537Z,44.67
2023-07-20T12:09:18.531Z,44.73
2023-07-20T12:11:36.676Z,45.50
2023-07-20T12:13:39.041Z,45.17
2023-07-20T12:15:40.725Z,45.36
2023-07-20T12:17:46.666Z,45.13
2023-07-20T12:19:48.757Z,47.61
2023-07-20T12:21:50.773Z,44.66
2023-07-20T12:23:52.359Z,45.68
2023-07-20T12:25:55.083Z,44.30
2023-07-20T12:28:03.384Z,44.93
2023-07-20T12:30:07.083Z,42.68
2023-07-20T12:32:09.087Z,43.25
2023-07-20T12:34:12.199Z,45.07
2023-07-20T12:36:13.823Z,42.10
2023-07-20T12:38:15.544Z,41.30
2023-07-20T12:40:17.557Z,43.41
2023-07-20T12:42:19.101Z,38.00
2023-07-20T12:44:20.727Z,40.12
2023-07-20T12:46:24.082Z,40.82
2023-07-20T12:48:26.383Z,35.14
2023-07-20T12:50:28.179Z,35.25
2023-07-20T12:52:29.881Z,36.00
2023-07-20T12:54:32.317Z,34.94
2023-07-20T12:58:41.452Z,37.32
2023-07-20T13:00:46.481Z,37.21
2023-07-20T13:02:48.441Z,35.07
2023-07-20T13:04:50.597Z,37.30
2023-07-20T13:06:52.335Z,37.70
2023-07-20T13:08:56.932Z,35.63
2023-07-20T13:10:58.649Z,39.02
2023-07-20T13:13:01.843Z,34.76
2023-07-20T13:15:07.106Z,39.08
2023-07-20T13:17:11.296Z,38.56
2023-07-20T13:19:13.242Z,39.33
2023-07-20T13:21:15.018Z,37.62
2023-07-20T13:23:16.712Z,36.60
2023-07-20T13:25:20.622Z,35.25
2023-07-20T13:27:23.634Z,34.22
2023-07-20T13:29:26.215Z,33.01
2023-07-20T13:31:29.345Z,33.55
2023-07-20T13:33:31.225Z,34.26
2023-07-20T13:35:48.902Z,37.13
2023-07-20T13:37:51.874Z,37.11
2023-07-20T13:39:54.164Z,38.40
2023-07-20T13:41:55.896Z,36.59
2023-07-20T13:43:58.159Z,37.23
2023-07-20T13:46:00.205Z,36.96
2023-07-20T13:48:03.702Z,35.50
2023-07-20T13:50:08.789Z,34.59
2023-07-20T13:56:21.229Z,33.15
2023-07-20T13:58:23.047Z,33.00
2023-07-20T14:00:28.564Z,32.37
2023-07-20T14:04:35.181Z,32.01
2023-07-20T14:06:37.581Z,31.82
2023-07-20T14:08:39.737Z,34.77
2023-07-20T14:12:46.155Z,32.23
2023-07-20T14:14:47.685Z,31.82
2023-07-20T14:16:49.246Z,31.73
2023-07-20T14:18:51.525Z,32.97
2023-07-20T14:20:53.192Z,32.11
2023-07-20T14:22:54.735Z,33.09
2023-07-20T14:24:59.246Z,34.04
2023-07-20T14:27:01.942Z,33.83
2023-07-20T14:29:03.671Z,33.35
2023-07-20T14:31:06.314Z,32.49
2023-07-20T14:33:08.141Z,33.42
2023-07-20T14:35:11.059Z,34.44
2023-07-20T14:37:14.653Z,31.46
2023-07-20T14:39:16.569Z,32.86
2023-07-20T14:43:20.121Z,32.18
2023-07-20T14:45:22.234Z,32.08
2023-07-20T14:47:23.946Z,29.20
2023-07-20T14:49:27.260Z,29.10
2023-07-20T14:53:38.827Z,29.85
2023-07-20T14:55:43.289Z,28.64
2023-07-20T14:57:44.929Z,28.81
2023-07-20T14:59:46.431Z,29.61
2023-07-20T15:01:48.012Z,29.29
2023-07-20T15:03:53.309Z,28.37
2023-07-20T15:05:54.949Z,27.98
2023-07-20T15:07:56.600Z,27.89
2023-07-20T15:09:58.214Z,28.10
2023-07-20T15:11:59.783Z,27.84
2023-07-20T15:14:01.697Z,27.27
2023-07-20T15:16:03.425Z,28.90
2023-07-20T15:18:04.996Z,25.75
2023-07-20T15:20:09.033Z,27.27
2023-07-20T15:22:11.126Z,26.89
2023-07-20T15:24:13.842Z,26.07
2023-07-20T15:26:16.001Z,27.91
2023-07-20T15:28:17.564Z,26.81
2023-07-20T15:32:24.697Z,30.24
2023-07-20T15:34:26.208Z,28.58
2023-07-20T15:36:28.095Z,30.25
2023-07-20T15:38:29.684Z,29.20
2023-07-20T15:40:31.367Z,32.34
2023-07-20T15:44:37.738Z,32.28
2023-07-20T15:46:42.414Z,33.85
2023-07-20T15:48:45.853Z,34.05
2023-07-20T15:50:47.478Z,34.50
2023-07-20T15:54:55.807Z,33.73
2023-07-20T15:56:58.296Z,33.08
2023-07-20T15:59:00.273Z,33.64
2023-07-20T16:01:02.028Z,32.74
2023-07-20T16:03:03.924Z,33.87
2023-07-20T16:07:10.302Z,34.92
2023-07-20T16:09:11.781Z,35.25
2023-07-20T16:11:13.512Z,35.50
2023-07-20T16:13:15.063Z,35.62
2023-07-20T16:15:53.437Z,35.89
2023-07-20T16:17:38.487Z,36.83
2023-07-20T16:19:40.081Z,37.66
2023-07-20T16:21:41.621Z,36.91
2023-07-20T16:23:44.191Z,38.37
2023-07-20T16:25:47.521Z,37.99
2023-07-20T16:27:49.107Z,38.83
2023-07-20T16:29:50.737Z,38.78
2023-07-20T16:36:01.624Z,38.07
2023-07-20T16:42:17.133Z,38.68
2023-07-20T16:44:18.684Z,38.68
2023-07-20T16:48:25.201Z,38.59
2023-07-20T16:50:27.222Z,38.96
2023-07-20T16:52:29.163Z,38.79
2023-07-20T16:54:30.833Z,38.55
2023-07-20T16:56:32.531Z,38.20
2023-07-20T16:58:35.171Z,38.74
2023-07-20T17:00:38.017Z,39.04
2023-07-20T17:02:40.256Z,38.05
2023-07-20T17:04:41.911Z,39.18
2023-07-20T17:06:43.587Z,38.64
2023-07-20T17:08:45.122Z,38.70
2023-07-20T17:10:46.748Z,37.78
2023-07-20T17:12:48.448Z,37.85
2023-07-20T17:14:50.912Z,38.13
2023-07-20T17:16:53.059Z,37.93
2023-07-20T17:18:56.152Z,39.51
2023-07-20T17:20:58.047Z,38.93
2023-07-20T17:22:59.592Z,38.68
2023-07-20T17:29:10.532Z,39.36
2023-07-20T17:31:12.254Z,39.34
2023-07-20T17:33:15.859Z,39.63
2023-07-20T17:35:17.510Z,39.28
2023-07-20T17:37:21.834Z,39.40
2023-07-20T17:40:36.769Z,38.76
2023-07-20T17:41:46.780Z,40.43
2023-07-20T17:43:48.518Z,40.73
2023-07-20T17:45:54.993Z,41.15
2023-07-20T17:47:57.098Z,40.28
2023-07-20T17:49:59.168Z,40.60
2023-07-20T17:52:00.839Z,39.44
2023-07-20T17:54:02.528Z,39.71
2023-07-20T17:56:04.246Z,41.54
2023-07-20T17:58:05.940Z,41.08
2023-07-20T18:02:15.369Z,42.33
2023-07-20T18:04:17.342Z,42.30
2023-07-20T18:06:19.219Z,40.55
2023-07-20T18:08:20.986Z,41.77
2023-07-20T18:10:22.681Z,41.04
2023-07-20T18:12:25.095Z,41.58
2023-07-20T18:14:26.728Z,41.55
2023-07-20T18:16:28.706Z,42.25
2023-07-20T18:18:30.635Z,42.49
2023-07-20T18:20:33.997Z,41.19
2023-07-20T18:22:37.157Z,41.73
2023-07-20T18:24:39.115Z,41.44
2023-07-20T18:26:40.593Z,41.76
2023-07-20T18:28:42.095Z,42.80
2023-07-20T18:30:45.725Z,41.72
2023-07-20T18:32:48.253Z,42.29
2023-07-20T18:34:50.403Z,42.20
2023-07-20T18:36:52.394Z,42.94
2023-07-20T18:38:55.101Z,42.96
2023-07-20T18:40:56.719Z,42.85
2023-07-20T18:42:59.007Z,43.17
2023-07-20T18:45:00.614Z,42.89
2023-07-20T18:47:02.353Z,43.36
2023-07-20T18:49:03.963Z,42.42
2023-07-20T18:51:07.946Z,42.48
2023-07-20T18:53:09.676Z,42.09
2023-07-20T18:55:11.335Z,42.87
2023-07-20T18:57:12.853Z,43.22
2023-07-20T18:59:15.229Z,44.01
2023-07-20T19:01:17.041Z,44.92
2023-07-20T19:03:18.851Z,44.90
2023-07-20T19:05:21.360Z,44.04
2023-07-20T19:07:22.922Z,45.27
2023-07-20T19:09:24.508Z,45.47
2023-07-20T19:13:32.699Z,43.67
2023-07-20T19:15:36.515Z,45.43
2023-07-20T19:17:38.424Z,45.86
2023-07-20T19:19:40.096Z,45.61
2023-07-20T19:21:41.797Z,45.71
2023-07-20T19:23:43.720Z,45.79
2023-07-20T19:25:45.463Z,46.85
2023-07-20T19:27:47.531Z,46.94
2023-07-20T19:29:49.094Z,45.28
2023-07-20T19:31:50.771Z,46.06
2023-07-20T19:33:52.323Z,46.58
2023-07-20T19:35:54.234Z,46.84
2023-07-20T19:37:56.209Z,47.23
2023-07-20T19:39:57.826Z,48.27
2023-07-20T19:41:59.729Z,48.25
2023-07-20T19:44:01.252Z,48.76
2023-07-20T19:46:03.932Z,48.63
2023-07-20T19:48:07.421Z,48.15
2023-07-20T19:50:09.580Z,48.91
2023-07-20T19:52:12.155Z,48.32
2023-07-20T19:56:18.403Z,48.51
2023-07-20T19:58:19.949Z,48.41
2023-07-20T20:01:43.886Z,48.58
2023-07-20T20:04:56.703Z,48.61
2023-07-20T20:07:00.916Z,48.47
2023-07-20T20:09:02.885Z,48.35
2023-07-20T20:13:10.015Z,49.09
2023-07-20T20:15:11.947Z,49.05
2023-07-20T20:17:13.680Z,49.10
2023-07-20T20:19:15.431Z,49.40
2023-07-20T20:21:17.258Z,49.08
2023-07-20T20:23:20.858Z,49.64
2023-07-20T20:25:22.503Z,50.07
2023-07-20T20:27:24.750Z,50.24
2023-07-20T20:29:26.415Z,50.18
2023-07-20T20:31:28.240Z,50.19
2023-07-20T20:33:29.846Z,50.19
2023-07-20T20:35:34.547Z,50.26
2023-07-20T20:37:37.003Z,49.93
2023-07-20T20:39:38.701Z,50.05
2023-07-20T20:41:47.419Z,49.95
2023-07-20T20:43:49.469Z,49.78
2023-07-20T20:45:51.941Z,49.74
2023-07-20T20:47:53.450Z,49.81
2023-07-20T20:49:55.321Z,50.61
2023-07-20T20:51:57.302Z,50.40
2023-07-20T20:53:59.041Z,50.80
2023-07-20T20:56:01.169Z,50.65
2023-07-20T20:58:03.038Z,50.78
2023-07-20T21:00:07.670Z,50.53
2023-07-20T21:02:10.396Z,51.08
2023-07-20T21:04:11.977Z,51.19
2023-07-20T21:06:13.571Z,50.86
2023-07-20T21:08:16.305Z,51.18
2023-07-20T21:10:18.645Z,50.71
2023-07-20T21:12:20.179Z,50.70
2023-07-20T21:14:21.709Z,50.42
2023-07-20T21:16:23.719Z,50.68
2023-07-20T21:18:25.439Z,50.30
2023-07-20T21:20:27.007Z,50.77
2023-07-20T21:22:28.805Z,51.00
2023-07-20T21:24:30.426Z,51.51
2023-07-20T21:26:32.037Z,51.35
2023-07-20T21:28:33.710Z,51.75
2023-07-20T21:30:35.605Z,51.29
2023-07-20T21:32:38.116Z,51.50
2023-07-20T21:34:39.984Z,51.20
2023-07-20T21:36:42.378Z,51.73
2023-07-20T21:38:44.036Z,51.94
2023-07-20T21:40:45.570Z,51.58
2023-07-20T21:42:47.430Z,51.79
2023-07-20T21:44:49.042Z,51.77
2023-07-20T21:46:51.303Z,52.30
2023-07-20T21:48:52.853Z,52.87
2023-07-20T21:50:55.683Z,54.18
2023-07-20T21:52:59.626Z,54.30
2023-07-20T21:55:04.435Z,56.56
2023-07-20T21:57:08.382Z,58.43
2023-07-20T21:59:10.351Z,58.30
2023-07-20T22:01:40.303Z,57.96
2023-07-20T22:03:33.578Z,58.37
2023-07-20T22:05:35.800Z,58.28
2023-07-20T22:07:37.879Z,59.75
2023-07-20T22:09:40.440Z,61.03
2023-07-20T22:11:42.263Z,59.94
2023-07-20T22:13:43.943Z,61.55
2023-07-20T22:15:45.628Z,60.84
2023-07-20T22:17:47.691Z,60.25
2023-07-20T22:19:49.355Z,57.29
2023-07-20T22:21:51.312Z,57.75
2023-07-20T22:23:52.894Z,57.88
2023-07-20T22:25:54.513Z,57.70
2023-07-20T22:27:56.025Z,57.68
2023-07-20T22:29:57.605Z,58.23
2023-07-20T22:31:59.461Z,58.77
2023-07-20T22:34:01.092Z,58.84
2023-07-20T22:36:03.041Z,58.90
2023-07-20T22:38:04.639Z,59.16
2023-07-20T22:40:07.037Z,58.91
2023-07-20T22:42:08.778Z,58.99
2023-07-20T22:44:10.348Z,58.89
2023-07-20T22:46:12.059Z,59.84
2023-07-20T22:48:16.449Z,60.23
2023-07-20T22:50:18.626Z,60.49
2023-07-20T22:52:20.122Z,58.47
2023-07-20T22:54:22.167Z,59.06
2023-07-20T22:56:23.979Z,58.61
2023-07-20T22:58:25.793Z,58.85
2023-07-20T23:00:29.660Z,59.20
2023-07-20T23:02:31.790Z,59.77
2023-07-20T23:04:34.876Z,59.69
2023-07-20T23:06:36.735Z,60.73
2023-07-20T23:08:38.380Z,60.55
2023-07-20T23:10:39.960Z,62.29
2023-07-20T23:12:41.872Z,62.45
2023-07-20T23:14:43.579Z,62.31
2023-07-20T23:16:45.359Z,63.38
2023-07-20T23:18:47.619Z,62.65
2023-07-20T23:20:49.482Z,64.89
2023-07-20T23:22:52.291Z,64.71
2023-07-20T23:24:54.026Z,64.27
2023-07-20T23:26:56.123Z,63.70
2023-07-20T23:28:57.591Z,63.79
2023-07-20T23:31:00.637Z,62.87
2023-07-20T23:33:02.291Z,62.64
2023-07-20T23:35:04.127Z,63.05
2023-07-20T23:37:06.545Z,63.39
2023-07-20T23:39:09.430Z,62.36
2023-07-20T23:41:11.112Z,61.35
2023-07-20T23:43:13.102Z,61.12
2023-07-20T23:45:15.393Z,61.04
2023-07-20T23:47:18.266Z,60.41
2023-07-20T23:49:20.712Z,59.96
2023-07-20T23:51:24.954Z,61.13
2023-07-20T23:53:26.657Z,60.87
2023-07-20T23:55:29.423Z,61.19
2023-07-20T23:57:32.478Z,61.39
2023-07-20T23:59:35.455Z,61.41
